• Join FlightAware (Why Join?)
  • Login
  • US Flag 
03:19AM EDT


 

Airport Tracker/Info


-or-


 

Live Flight TrackerFlight Track Log ✈ CTL18 ✈ 24-Apr-2013 ✈ KMBS - KYIP

Flight Track Log - Related Links

Times and Time Zones

All times are in EDT time to prevent confusion due to time zone crossing. See the CTL18 flight status page for this flight to view local times or setup timezone preferences in your user account.

Time Position Orientation Groundspeed Altitude Reporting Facility
EDT Latitude Longitude Course Direction KTS MPH feet Rate Location/Type
07:50PM 43.3619 -84.0057 160° South  Level Estimated
07:51PM 43.3366 -83.9838 148° Southeast  Level FlightAware Approximate
07:52PM 43.3080 -83.9718 160° South  Level Estimated
07:53PM 43.2807 -83.9553 156° South  Level FlightAware Approximate
07:54PM 43.2533 -83.9388 156° South  Level FlightAware Approximate
07:55PM 43.2247 -83.9271 163° South  Level Estimated
07:56PM 43.1965 -83.9134 161° South  Level FlightAware Approximate
07:57PM 43.1683 -83.8997 161° South  Level FlightAware Approximate
07:58PM 43.1401 -83.8861 161° South  Level FlightAware Approximate
07:58PM 42.9614 -83.8006 164° South 182 209 5,100  Level Cleveland Center
07:59PM 43.1115 -83.8746 160° South  Level Estimated
07:59PM 42.9183 -83.7783 159° South 186 214 5,000  Level Cleveland Center
08:00PM 43.0835 -83.8603 160° South  Level FlightAware Approximate
08:00PM 42.8650 -83.7472 157° South 184 212 5,100  Level Cleveland Center
08:01PM 43.0555 -83.8461 160° South  Level FlightAware Approximate
08:01PM 42.8278 -83.7314 163° South 183 211 5,000  Level Cleveland Center
08:02PM 43.0275 -83.8318 160° South  Level FlightAware Approximate
08:02PM 42.7781 -83.7175 168° South 181 208 5,000  Level Cleveland Center
08:03PM 42.9995 -83.8176 160° South  Level FlightAware Approximate
08:03PM 42.7244 -83.7006 167° South 180 207 5,000  Level Cleveland Center
08:04PM 42.6769 -83.6814 163° South 179 206 5,100  Climbing Cleveland Center
08:05PM 42.6294 -83.6678 168° South 181 208 5,000 -60 Descending Cleveland Center
08:06PM 42.5736 -83.6481 165° South 179 206 5,000 -120 Level Cleveland Center
08:07PM 42.5178 -83.6314 168° South 181 208 4,800 -240 Descending Cleveland Center
08:08PM 42.4661 -83.6147 167° South 192 221 4,500 -540 Descending Cleveland Center
08:09PM 42.4189 -83.5900 159° South 198 228 3,800 -720 Descending Cleveland Center
08:10PM 42.3733 -83.5708 163° South 192 221 3,200 -600 Descending Cleveland Center
08:11PM 42.3242 -83.5406 156° South 182 209 2,700 -600 Descending Cleveland Center
08:12PM 42.2769 -83.5131 157° South 170 196 2,000 -660 Descending Cleveland Center
08:14PM 42.2336 -83.5168 160° South  Level FlightAware Approximate
08:21PM 42.2333 -83.5167 160° South  Level FlightAware Approximate
08:22PM 42.2393 -83.5310 160° South  Level Estimated